createdAt,value
2018-08-28T00:02:45.474Z,99081.27
2018-08-28T00:05:50.405Z,99077.75
2018-08-28T00:08:55.329Z,99081.33
2018-08-28T00:12:00.318Z,99080.38
2018-08-28T00:15:05.508Z,99083.84
2018-08-28T00:18:10.429Z,99090.42
2018-08-28T00:21:15.358Z,99093.97
2018-08-28T00:24:20.280Z,99092.49
2018-08-28T00:27:25.230Z,99098.47
2018-08-28T00:30:30.210Z,99099.95
2018-08-28T00:33:35.156Z,99104.11
2018-08-28T00:36:40.066Z,99108.47
2018-08-28T00:39:45.005Z,99107.47
2018-08-28T00:42:49.938Z,99109.05
2018-08-28T00:45:56.418Z,99110.45
2018-08-28T00:49:01.343Z,99106.67
2018-08-28T00:52:06.388Z,99113.12
2018-08-28T00:55:11.338Z,99114.52
2018-08-28T00:58:16.261Z,99116.97
2018-08-28T01:01:21.177Z,99118.75
2018-08-28T01:04:26.144Z,99118.55
2018-08-28T01:07:31.121Z,99126.20
2018-08-28T01:10:36.105Z,99121.33
2018-08-28T01:13:41.070Z,99120.13
2018-08-28T01:16:46.045Z,99121.86
2018-08-28T01:19:51.049Z,99125.91
2018-08-28T01:22:56.033Z,99131.56
2018-08-28T01:26:01.036Z,99128.01
2018-08-28T01:29:06.006Z,99133.51
2018-08-28T01:32:10.988Z,99130.61
2018-08-28T01:35:15.961Z,99141.22
2018-08-28T01:38:20.924Z,99145.38
2018-08-28T01:41:25.897Z,99135.50
2018-08-28T01:44:30.845Z,99139.29
2018-08-28T01:47:36.016Z,99139.29
2018-08-28T01:50:41.002Z,99138.13
2018-08-28T01:53:45.958Z,99139.05
2018-08-28T01:56:50.896Z,99145.70
2018-08-28T01:59:55.817Z,99143.28
2018-08-28T02:03:00.916Z,99145.53
2018-08-28T02:06:05.912Z,99146.69
2018-08-28T02:09:10.869Z,99138.72
2018-08-28T02:12:15.822Z,99143.45
2018-08-28T02:15:20.791Z,99149.84
2018-08-28T02:18:25.740Z,99140.70
2018-08-28T02:21:30.698Z,99144.30
2018-08-28T02:24:35.657Z,99149.84
2018-08-28T02:27:40.602Z,99149.06
2018-08-28T02:30:45.589Z,99149.41
2018-08-28T02:33:50.589Z,99150.83
2018-08-28T02:36:55.547Z,99151.98
2018-08-28T02:40:00.516Z,99152.94
2018-08-28T02:43:05.489Z,99148.19
2018-08-28T02:46:10.457Z,99144.47
2018-08-28T02:49:15.414Z,99152.72
2018-08-28T02:52:20.369Z,99146.98
2018-08-28T02:55:25.346Z,99154.89
2018-08-28T02:58:30.320Z,99157.06
2018-08-28T03:01:35.279Z,99158.90
2018-08-28T03:04:40.232Z,99161.11
2018-08-28T03:07:45.197Z,99157.75
2018-08-28T03:10:50.193Z,99163.56
2018-08-28T03:13:55.154Z,99159.75
2018-08-28T03:17:00.180Z,99156.50
2018-08-28T03:20:05.163Z,99157.30
2018-08-28T03:23:10.123Z,99159.45
2018-08-28T03:26:15.088Z,99159.62
2018-08-28T03:29:20.214Z,99157.05
2018-08-28T03:32:25.172Z,99153.17
2018-08-28T03:35:30.157Z,99160.54
2018-08-28T03:38:35.114Z,99168.91
2018-08-28T03:41:40.074Z,99168.44
2018-08-28T03:44:45.017Z,99170.34
2018-08-28T03:47:49.959Z,99171.75
2018-08-28T03:50:54.912Z,99169.14
2018-08-28T03:53:59.841Z,99172.73
2018-08-28T03:57:04.845Z,99173.80
2018-08-28T04:00:09.811Z,99177.13
2018-08-28T04:03:14.785Z,99176.91
2018-08-28T04:06:19.785Z,99172.07
2018-08-28T04:09:24.736Z,99178.72
2018-08-28T04:12:29.709Z,99179.52
2018-08-28T04:15:34.649Z,99180.08
2018-08-28T04:18:39.589Z,99179.50
2018-08-28T04:21:44.549Z,99177.28
2018-08-28T04:24:49.517Z,99178.05
2018-08-28T04:27:54.482Z,99181.28
2018-08-28T04:30:59.497Z,99176.92
2018-08-28T04:34:04.407Z,99180.42
2018-08-28T04:37:09.556Z,99188.48
2018-08-28T04:40:14.517Z,99193.49
2018-08-28T04:43:19.498Z,99193.91
2018-08-28T04:46:24.449Z,99195.41
2018-08-28T04:49:29.383Z,99204.41
2018-08-28T04:52:34.685Z,99204.41
2018-08-28T04:55:39.640Z,99201.58
2018-08-28T04:58:44.596Z,99201.94
2018-08-28T05:01:49.546Z,99195.67
2018-08-28T05:04:54.459Z,99200.02
2018-08-28T05:07:59.373Z,99207.44
2018-08-28T05:11:04.297Z,99206.72
2018-08-28T05:14:09.246Z,99206.81
2018-08-28T05:17:14.169Z,99201.30
2018-08-28T05:20:19.071Z,99209.28
2018-08-28T05:23:24.008Z,99215.69
2018-08-28T05:26:28.898Z,99208.17
2018-08-28T05:29:33.839Z,99210.45
2018-08-28T05:32:38.760Z,99212.75
2018-08-28T05:35:43.668Z,99214.80
2018-08-28T05:38:48.589Z,99220.70
2018-08-28T05:41:53.499Z,99221.95
2018-08-28T05:44:58.402Z,99215.71
2018-08-28T05:48:03.343Z,99221.30
2018-08-28T05:51:08.252Z,99223.16
2018-08-28T05:54:13.181Z,99231.15
2018-08-28T05:57:18.137Z,99223.84
2018-08-28T06:00:23.129Z,99222.63
2018-08-28T06:03:28.402Z,99224.13
2018-08-28T06:06:33.168Z,99220.20
2018-08-28T06:09:38.134Z,99218.20
2018-08-28T06:12:43.126Z,99218.58
2018-08-28T06:15:48.063Z,99219.45
2018-08-28T06:18:53.025Z,99222.41
2018-08-28T06:21:58.415Z,99223.41
2018-08-28T06:25:03.488Z,99220.45
2018-08-28T06:28:08.573Z,99217.94
2018-08-28T06:31:13.495Z,99215.17
2018-08-28T06:34:18.461Z,99220.86
2018-08-28T06:37:23.622Z,99214.86
2018-08-28T06:40:28.565Z,99214.03
2018-08-28T06:43:33.553Z,99214.39
2018-08-28T06:46:38.509Z,99208.84
2018-08-28T06:49:43.506Z,99215.86
2018-08-28T06:52:48.521Z,99205.25
2018-08-28T06:55:53.453Z,99209.33
2018-08-28T06:58:58.485Z,99203.11
2018-08-28T07:02:03.441Z,99205.12
2018-08-28T07:05:08.738Z,99200.81
2018-08-28T07:08:13.676Z,99189.70
2018-08-28T07:11:18.600Z,99193.60
2018-08-28T07:14:23.521Z,99197.02
2018-08-28T07:17:28.479Z,99197.20
2018-08-28T07:20:33.508Z,99196.88
2018-08-28T07:23:38.437Z,99196.98
2018-08-28T07:26:43.352Z,99191.85
2018-08-28T07:29:48.276Z,99192.30
2018-08-28T07:32:53.332Z,99189.53
2018-08-28T07:35:58.257Z,99191.85
2018-08-28T07:39:04.335Z,99192.10
2018-08-28T07:42:09.441Z,99188.49
2018-08-28T07:45:14.397Z,99184.22
2018-08-28T07:48:19.408Z,99191.48
2018-08-28T07:51:24.381Z,99189.87
2018-08-28T07:54:29.312Z,99191.38
2018-08-28T07:57:34.294Z,99190.39
2018-08-28T08:00:39.227Z,99191.38
2018-08-28T08:03:44.161Z,99188.97
2018-08-28T08:06:49.094Z,99189.05
2018-08-28T08:09:54.101Z,99190.23
2018-08-28T08:12:59.173Z,99198.84
2018-08-28T08:16:04.153Z,99201.17
2018-08-28T08:19:09.157Z,99201.73
2018-08-28T08:22:14.164Z,99200.00
2018-08-28T08:25:19.105Z,99201.52
2018-08-28T08:28:24.131Z,99202.81
2018-08-28T08:31:29.005Z,99194.66
2018-08-28T08:34:33.953Z,99196.80
2018-08-28T08:37:38.905Z,99194.35
2018-08-28T08:40:43.863Z,99198.08
2018-08-28T08:43:48.832Z,99187.48
2018-08-28T08:46:53.774Z,99196.18
2018-08-28T08:49:58.727Z,99193.48
2018-08-28T08:53:03.704Z,99191.86
2018-08-28T08:56:08.669Z,99188.43
2018-08-28T08:59:13.598Z,99182.90
2018-08-28T09:02:18.581Z,99173.97
2018-08-28T09:05:23.572Z,99175.97
2018-08-28T09:08:28.561Z,99187.14
2018-08-28T09:11:34.553Z,99183.94
2018-08-28T09:14:39.525Z,99171.94
2018-08-28T09:17:44.520Z,99168.58
2018-08-28T09:20:49.473Z,99176.83
2018-08-28T09:23:54.432Z,99171.64
2018-08-28T09:26:59.384Z,99168.25
2018-08-28T09:30:04.576Z,99166.75
2018-08-28T09:33:09.524Z,99167.92
2018-08-28T09:36:14.470Z,99161.69
2018-08-28T09:39:19.416Z,99167.48
2018-08-28T09:42:24.390Z,99171.25
2018-08-28T09:45:29.353Z,99157.18
2018-08-28T09:48:34.423Z,99156.83
2018-08-28T09:51:39.285Z,99151.90
2018-08-28T09:54:44.243Z,99151.73
2018-08-28T09:57:49.209Z,99153.27
2018-08-28T10:00:59.936Z,99151.42
2018-08-28T10:04:05.080Z,99150.06
2018-08-28T10:07:10.102Z,99140.75
2018-08-28T10:10:15.028Z,99138.08
2018-08-28T10:13:19.942Z,99127.70
2018-08-28T10:16:24.967Z,99128.84
2018-08-28T10:19:29.924Z,99131.52
2018-08-28T10:22:34.905Z,99130.19
2018-08-28T10:25:39.873Z,99129.84
2018-08-28T10:28:44.824Z,99126.08
2018-08-28T10:31:49.813Z,99116.11
2018-08-28T10:34:54.973Z,99121.82
2018-08-28T10:37:59.968Z,99119.19
2018-08-28T10:41:05.166Z,99121.16
2018-08-28T10:44:10.090Z,99123.97
2018-08-28T10:47:15.083Z,99122.71
2018-08-28T10:50:20.036Z,99124.98
2018-08-28T10:53:25.132Z,99117.83
2018-08-28T10:56:30.082Z,99113.87
2018-08-28T10:59:35.154Z,99110.88
2018-08-28T11:02:40.089Z,99110.52
2018-08-28T11:05:45.128Z,99112.19
2018-08-28T11:08:50.228Z,99100.30
2018-08-28T11:11:55.060Z,99101.17
2018-08-28T11:15:00.024Z,99093.77
2018-08-28T11:18:05.270Z,99092.66
2018-08-28T11:21:10.236Z,99094.72
2018-08-28T11:24:15.173Z,99092.95
2018-08-28T11:27:20.127Z,99094.19
2018-08-28T11:30:25.105Z,99089.20
2018-08-28T11:33:30.073Z,99090.61
2018-08-28T11:36:35.052Z,99097.91
2018-08-28T11:39:40.045Z,99093.28
2018-08-28T11:42:45.017Z,99095.77
2018-08-28T11:45:50.114Z,99088.50
2018-08-28T11:48:55.089Z,99088.17
2018-08-28T11:52:00.069Z,99080.27
2018-08-28T11:55:05.458Z,99085.38
2018-08-28T11:58:10.417Z,99078.85
2018-08-28T12:01:15.387Z,99082.89
2018-08-28T12:04:20.360Z,99086.83
2018-08-28T12:07:25.442Z,99084.55
2018-08-28T12:10:30.480Z,99071.61
2018-08-28T12:13:35.553Z,99068.19
2018-08-28T12:16:40.562Z,99066.56
2018-08-28T12:19:45.542Z,99071.34
2018-08-28T12:22:50.523Z,99058.70
2018-08-28T12:25:55.530Z,99064.31
2018-08-28T12:29:00.510Z,99063.68
2018-08-28T12:32:05.493Z,99056.53
2018-08-28T12:35:10.440Z,99039.25
2018-08-28T12:38:15.391Z,99043.09
2018-08-28T12:41:20.341Z,99045.27
2018-08-28T12:44:25.276Z,99040.56
2018-08-28T12:47:30.370Z,99038.91
2018-08-28T12:50:35.300Z,99035.66
2018-08-28T12:53:40.198Z,99030.97
2018-08-28T12:56:45.158Z,99027.19
2018-08-28T12:59:50.074Z,99027.81
2018-08-28T13:02:54.999Z,99026.55
2018-08-28T13:05:59.916Z,99029.38
2018-08-28T13:09:05.703Z,99015.48
2018-08-28T13:12:10.665Z,99019.30
2018-08-28T13:15:15.607Z,99012.38
2018-08-28T13:18:20.537Z,99009.69
2018-08-28T13:21:25.477Z,99004.83
2018-08-28T13:24:30.409Z,99005.22
2018-08-28T13:27:35.371Z,99000.28
2018-08-28T13:30:40.297Z,98999.67
2018-08-28T13:33:45.232Z,98998.84
2018-08-28T13:36:50.137Z,98993.06
2018-08-28T13:39:55.068Z,98988.28
2018-08-28T13:43:00.013Z,98988.16
2018-08-28T13:46:04.956Z,98977.63
2018-08-28T13:49:09.946Z,98982.63
2018-08-28T13:52:14.862Z,98980.27
2018-08-28T13:55:19.777Z,98981.14
2018-08-28T13:58:24.706Z,98975.31
2018-08-28T14:01:29.673Z,98972.33
2018-08-28T14:04:34.589Z,98968.07
2018-08-28T14:07:39.528Z,98966.67
2018-08-28T14:10:44.525Z,98965.80
2018-08-28T14:13:49.400Z,98967.81
2018-08-28T14:16:54.306Z,98973.11
2018-08-28T14:19:59.220Z,98958.84
2018-08-28T14:23:04.399Z,98959.01
2018-08-28T14:26:09.353Z,98951.08
2018-08-28T14:29:14.319Z,98955.38
2018-08-28T14:32:19.249Z,98955.11
2018-08-28T14:35:24.185Z,98953.75
2018-08-28T14:38:29.101Z,98947.36
2018-08-28T14:41:34.061Z,98949.89
2018-08-28T14:44:38.985Z,98948.80
2018-08-28T14:47:43.908Z,98945.25
2018-08-28T14:50:48.839Z,98941.13
2018-08-28T14:53:53.927Z,98934.37
2018-08-28T14:56:59.653Z,98929.65
2018-08-28T15:00:05.035Z,98935.16
2018-08-28T15:03:10.009Z,98938.23
2018-08-28T15:06:14.951Z,98935.44
2018-08-28T15:09:19.937Z,98938.02
2018-08-28T15:12:24.933Z,98927.81
2018-08-28T15:15:29.902Z,98930.69
2018-08-28T15:18:34.873Z,98929.97
2018-08-28T15:21:39.817Z,98928.70
2018-08-28T15:24:44.904Z,98922.81
2018-08-28T15:27:49.890Z,98930.39
2018-08-28T15:30:54.852Z,98921.60
2018-08-28T15:33:59.821Z,98914.05
2018-08-28T15:37:04.808Z,98919.83
2018-08-28T15:40:09.867Z,98910.59
2018-08-28T15:43:14.844Z,98907.34
2018-08-28T15:46:19.797Z,98905.77
2018-08-28T15:49:24.748Z,98904.37
2018-08-28T15:52:29.705Z,98904.98
2018-08-28T15:55:34.673Z,98900.77
2018-08-28T15:58:39.719Z,98898.30
2018-08-28T16:01:44.673Z,98896.11
2018-08-28T16:04:49.842Z,98902.48
2018-08-28T16:07:54.565Z,98897.77
2018-08-28T16:10:59.498Z,98900.58
2018-08-28T16:14:04.449Z,98904.52
2018-08-28T16:17:09.377Z,98900.49
2018-08-28T16:20:14.280Z,98889.60
2018-08-28T16:23:24.966Z,98886.83
2018-08-28T16:26:29.877Z,98887.90
2018-08-28T16:29:34.843Z,98884.22
2018-08-28T16:32:39.729Z,98876.86
2018-08-28T16:35:44.735Z,98880.76
2018-08-28T16:38:49.639Z,98873.55
2018-08-28T16:41:54.553Z,98878.76
2018-08-28T16:44:59.788Z,98881.33
2018-08-28T16:48:04.717Z,98875.16
2018-08-28T16:51:09.628Z,98877.95
2018-08-28T16:54:14.541Z,98876.60
2018-08-28T16:57:19.470Z,98873.05
2018-08-28T17:00:24.385Z,98866.77
2018-08-28T17:03:29.318Z,98864.63
2018-08-28T17:06:34.257Z,98863.66
2018-08-28T17:09:39.298Z,98861.52
2018-08-28T17:12:44.210Z,98858.63
2018-08-28T17:15:49.245Z,98852.95
2018-08-28T17:18:54.161Z,98852.09
2018-08-28T17:21:59.085Z,98862.55
2018-08-28T17:25:04.134Z,98863.45
2018-08-28T17:28:09.044Z,98859.02
2018-08-28T17:31:13.961Z,98862.28
2018-08-28T17:34:18.912Z,98866.78
2018-08-28T17:37:23.891Z,98867.16
2018-08-28T17:40:28.744Z,98864.53
2018-08-28T17:43:33.677Z,98863.06
2018-08-28T17:46:38.809Z,98858.27
2018-08-28T17:49:43.777Z,98866.85
2018-08-28T17:52:48.648Z,98865.46
2018-08-28T17:55:53.588Z,98870.12
2018-08-28T17:58:58.505Z,98866.66
2018-08-28T18:02:03.465Z,98863.20
2018-08-28T18:05:08.424Z,98866.66
2018-08-28T18:08:13.353Z,98864.91
2018-08-28T18:11:18.292Z,98866.63
2018-08-28T18:14:23.249Z,98867.31
2018-08-28T18:17:28.210Z,98864.67
2018-08-28T18:20:33.154Z,98871.03
2018-08-28T18:23:38.068Z,98865.41
2018-08-28T18:26:43.127Z,98873.89
2018-08-28T18:29:48.409Z,98871.41
2018-08-28T18:32:53.369Z,98868.03
2018-08-28T18:35:58.559Z,98867.83
2018-08-28T18:39:04.965Z,98865.83
2018-08-28T18:42:09.917Z,98870.94
2018-08-28T18:45:14.863Z,98883.52
2018-08-28T18:48:19.772Z,98882.87
2018-08-28T18:51:24.916Z,98882.59
2018-08-28T18:54:29.851Z,98882.94
2018-08-28T18:57:34.989Z,98884.89
2018-08-28T19:00:39.957Z,98887.66
2018-08-28T19:03:45.249Z,98892.84
2018-08-28T19:06:50.569Z,98897.89
2018-08-28T19:09:55.861Z,98895.99
2018-08-28T19:13:01.637Z,98899.28
2018-08-28T19:16:06.834Z,98901.13
2018-08-28T19:19:11.822Z,98896.81
2018-08-28T19:22:16.808Z,98900.58
2018-08-28T19:25:21.792Z,98897.30
2018-08-28T19:28:26.754Z,98897.88
2018-08-28T19:31:31.965Z,98893.34
2018-08-28T19:34:37.280Z,98900.92
2018-08-28T19:37:42.238Z,98896.11
2018-08-28T19:40:47.232Z,98900.80
2018-08-28T19:43:52.525Z,98894.95
2018-08-28T19:46:57.516Z,98897.91
2018-08-28T19:50:02.894Z,98889.72
2018-08-28T19:53:08.313Z,98889.42
2018-08-28T19:56:13.269Z,98892.08
2018-08-28T19:59:18.523Z,98896.78
2018-08-28T20:02:23.452Z,98890.80
2018-08-28T20:05:28.477Z,98889.98
2018-08-28T20:08:33.417Z,98891.59
2018-08-28T20:11:38.477Z,98892.73
2018-08-28T20:14:43.633Z,98896.34
2018-08-28T20:17:48.865Z,98906.97
2018-08-28T20:20:54.268Z,98898.66
2018-08-28T20:23:59.565Z,98894.30
2018-08-28T20:27:04.942Z,98890.16
2018-08-28T20:30:10.256Z,98884.31
2018-08-28T20:33:15.617Z,98881.95
2018-08-28T20:36:20.553Z,98888.06
2018-08-28T20:39:26.777Z,98884.23
2018-08-28T20:42:32.145Z,98885.41
2018-08-28T20:45:37.540Z,98882.75
2018-08-28T20:48:42.714Z,98874.27
2018-08-28T20:51:48.117Z,98872.02
2018-08-28T20:54:53.054Z,98875.73
2018-08-28T20:57:58.108Z,98867.13
2018-08-28T21:01:02.986Z,98859.91
2018-08-28T21:04:08.289Z,98860.11
2018-08-28T21:07:13.265Z,98861.50
2018-08-28T21:10:18.970Z,98851.38
2018-08-28T21:13:23.955Z,98854.23
2018-08-28T21:16:29.369Z,98844.43
2018-08-28T21:19:34.390Z,98849.67
2018-08-28T21:22:40.479Z,98846.73
2018-08-28T21:25:45.500Z,98848.98
2018-08-28T21:28:50.525Z,98844.63
2018-08-28T21:31:55.484Z,98841.63
2018-08-28T21:35:00.469Z,98838.89
2018-08-28T21:38:05.974Z,98834.07
2018-08-28T21:41:11.166Z,98830.33
2018-08-28T21:44:16.137Z,98830.47
2018-08-28T21:47:21.194Z,98824.84
2018-08-28T21:50:26.202Z,98816.09
2018-08-28T21:53:31.185Z,98807.95
2018-08-28T21:56:36.527Z,98809.25
2018-08-28T22:03:22.297Z,98808.64
2018-08-28T22:06:33.351Z,98805.17
2018-08-28T22:09:39.094Z,98804.73
2018-08-28T22:12:44.359Z,98805.34
2018-08-28T22:15:49.749Z,98801.16
2018-08-28T22:18:54.965Z,98808.91
2018-08-28T22:22:00.053Z,98800.30
2018-08-28T22:25:05.340Z,98802.66
2018-08-28T22:28:10.293Z,98798.92
2018-08-28T22:31:15.211Z,98797.88
2018-08-28T22:34:20.447Z,98798.47
2018-08-28T22:37:25.674Z,98800.05
2018-08-28T22:40:31.257Z,98800.06
2018-08-28T22:43:36.177Z,98796.08
2018-08-28T22:46:41.114Z,98810.09
2018-08-28T22:49:46.005Z,98796.78
2018-08-28T22:52:50.917Z,98800.36
2018-08-28T22:55:55.832Z,98807.03
2018-08-28T22:59:00.756Z,98806.14
2018-08-28T23:02:05.685Z,98796.89
2018-08-28T23:05:10.621Z,98790.55
2018-08-28T23:08:15.537Z,98793.44
2018-08-28T23:11:20.462Z,98796.53
2018-08-28T23:14:25.364Z,98796.23
2018-08-28T23:17:30.267Z,98799.52
2018-08-28T23:20:35.188Z,98789.87
2018-08-28T23:23:40.105Z,98782.86
2018-08-28T23:26:45.021Z,98768.94
2018-08-28T23:29:49.937Z,98771.26
2018-08-28T23:32:54.878Z,98771.26
2018-08-28T23:35:59.797Z,98777.08
2018-08-28T23:39:05.148Z,98769.34
2018-08-28T23:42:10.062Z,98759.98
2018-08-28T23:45:15.002Z,98761.20
2018-08-28T23:48:19.926Z,98762.78
2018-08-28T23:51:24.833Z,98757.02
2018-08-28T23:54:29.741Z,98753.28
2018-08-28T23:57:34.678Z,98753.86
